Time;durP1;ratioP1;P1;durP2;ratioP2;P2;SDS_P1;SDS_P2;PMS_P1;PMS_P2;Temp;Humidity;BMP_temperature;BMP_pressure;BME280_temperature;BME280_humidity;BME280_pressure;Samples;Min_cycle;Max_cycle;Signal;HPM_P1;HPM_P2
2023/01/19 00:00:16;;;;;;;6.67;3.30;;;-2.60;97.30;;;;;;4999085;28;20570;-85
2023/01/19 00:02:44;;;;;;;2.27;2.07;;;-2.60;97.30;;;;;;4999724;28;20177;-85
2023/01/19 00:05:10;;;;;;;6.30;1.57;;;-2.50;97.30;;;;;;5017655;28;20432;-84
2023/01/19 00:07:35;;;;;;;4.30;2.57;;;-2.50;97.30;;;;;;4999186;28;20499;-85
2023/01/19 00:10:01;;;;;;;3.20;2.90;;;-2.50;97.30;;;;;;4999511;28;20181;-85
2023/01/19 00:12:26;;;;;;;6.53;2.60;;;-2.40;97.30;;;;;;5000521;28;20177;-85
2023/01/19 00:14:52;;;;;;;2.63;2.43;;;-2.40;97.30;;;;;;4999659;28;20236;-85
2023/01/19 00:17:17;;;;;;;2.43;2.23;;;-2.50;97.30;;;;;;5000313;28;20215;-85
2023/01/19 00:19:43;;;;;;;1.73;1.63;;;-2.50;97.30;;;;;;4999211;28;20173;-85
2023/01/19 00:22:08;;;;;;;1.67;1.57;;;-2.50;97.30;;;;;;5000334;28;20613;-85
2023/01/19 00:24:34;;;;;;;8.93;2.20;;;-2.50;97.30;;;;;;5000721;28;20189;-84
2023/01/19 00:27:02;;;;;;;1.73;1.63;;;-2.50;97.30;;;;;;5018868;28;20268;-84
2023/01/19 00:29:32;;;;;;;5.17;4.60;;;-2.50;97.30;;;;;;5000909;28;20188;-84
2023/01/19 00:31:58;;;;;;;2.23;1.90;;;-2.60;97.30;;;;;;5001000;28;20434;-85
2023/01/19 00:34:24;;;;;;;3.67;2.77;;;-2.60;97.30;;;;;;5001847;28;20448;-84
2023/01/19 00:36:49;;;;;;;1.60;1.50;;;-2.60;97.30;;;;;;5001539;28;21056;-85
2023/01/19 00:39:15;;;;;;;5.43;2.40;;;-2.60;97.30;;;;;;5019443;28;20683;-83
2023/01/19 00:44:24;;;;;;;1.60;1.50;;;-2.70;97.30;;;;;;5019953;28;20248;-84
2023/01/19 00:46:50;;;;;;;3.80;3.60;;;-2.70;97.30;;;;;;5001493;28;20417;-85
2023/01/19 00:49:15;;;;;;;2.30;2.10;;;-2.60;97.30;;;;;;4982087;28;20701;-85
2023/01/19 00:51:41;;;;;;;2.37;2.20;;;-2.60;97.30;;;;;;4982478;28;20178;-85
2023/01/19 00:54:09;;;;;;;3.03;2.83;;;-2.70;97.30;;;;;;4982386;28;20586;-84
2023/01/19 00:56:34;;;;;;;1.57;1.47;;;-2.70;97.30;;;;;;4983292;28;20598;-84
2023/01/19 00:59:00;;;;;;;13.33;3.10;;;-2.80;97.30;;;;;;4983353;28;20464;-84
2023/01/19 01:01:25;;;;;;;1.63;1.53;;;-2.90;97.30;;;;;;4984028;28;20671;-85
2023/01/19 01:03:52;;;;;;;2.00;1.90;;;-3.00;97.30;;;;;;4984466;28;20201;-86
2023/01/19 01:06:18;;;;;;;1.97;1.87;;;-3.00;97.30;;;;;;4985067;28;20192;-85
2023/01/19 01:08:44;;;;;;;1.97;1.87;;;-3.10;97.30;;;;;;4984156;28;20418;-84
2023/01/19 01:11:09;;;;;;;1.60;1.50;;;-3.10;97.30;;;;;;4984013;28;20861;-85
2023/01/19 01:13:35;;;;;;;6.63;3.10;;;-3.10;97.30;;;;;;4984689;28;20301;-85
2023/01/19 01:16:00;;;;;;;1.90;1.80;;;-3.20;97.30;;;;;;4984713;28;20200;-86
2023/01/19 01:18:27;;;;;;;1.83;1.73;;;-3.30;97.30;;;;;;4990372;28;20192;-86
2023/01/19 01:20:58;;;;;;;2.37;2.17;;;-3.30;97.30;;;;;;5013558;28;20185;-87
2023/01/19 01:23:24;;;;;;;1.40;1.30;;;-3.30;97.30;;;;;;5009778;28;20701;-84
2023/01/19 01:25:50;;;;;;;1.60;1.50;;;-3.20;97.30;;;;;;4999512;28;20436;-84
2023/01/19 01:28:15;;;;;;;1.73;1.63;;;-3.10;97.30;;;;;;5017519;28;20617;-84
2023/01/19 01:30:42;;;;;;;3.93;3.73;;;-3.00;97.30;;;;;;4999441;28;20732;-86
2023/01/19 01:33:07;;;;;;;1.97;1.87;;;-3.00;97.30;;;;;;4998983;28;20173;-85
2023/01/19 01:35:33;;;;;;;1.60;1.57;;;-3.00;97.30;;;;;;4986794;28;20865;-86
2023/01/19 01:37:59;;;;;;;3.80;2.90;;;-3.00;97.30;;;;;;4979997;28;20206;-85
2023/01/19 01:40:26;;;;;;;2.00;1.67;;;-2.90;97.30;;;;;;4997060;28;20170;-85
2023/01/19 01:42:52;;;;;;;2.97;2.37;;;-3.00;97.30;;;;;;4979804;28;20428;-85
2023/01/19 01:45:29;;;;;;;2.00;1.90;;;-3.00;97.30;;;;;;4976019;28;20528;-85
2023/01/19 01:48:08;;;;;;;3.37;3.23;;;-3.00;97.30;;;;;;4976301;28;20188;-84
2023/01/19 01:51:22;;;;;;;1.80;1.70;;;-3.00;97.30;;;;;;4976127;28;20445;-85
2023/01/19 01:53:25;;;;;;;8.20;2.93;;;-3.00;97.30;;;;;;4977836;28;20540;-86
2023/01/19 01:55:50;;;;;;;1.73;1.63;;;-3.00;97.30;;;;;;4976607;28;20493;-85
2023/01/19 01:58:16;;;;;;;1.93;1.83;;;-3.00;97.30;;;;;;4976434;28;20565;-85
2023/01/19 02:03:27;;;;;;;3.10;2.13;;;-2.90;97.30;;;;;;4978741;28;20213;-84
2023/01/19 02:05:56;;;;;;;4.23;2.20;;;-2.90;97.30;;;;;;4976563;28;20541;-85
2023/01/19 02:14:12;;;;;;;1.20;1.10;;;-2.90;97.30;;;;;;4977450;28;20496;-86
2023/01/19 02:16:37;;;;;;;1.60;1.50;;;-3.00;97.30;;;;;;4976530;28;20461;-84
2023/01/19 02:19:06;;;;;;;1.30;1.20;;;-3.10;97.30;;;;;;4977295;28;20225;-86
2023/01/19 02:21:50;;;;;;;2.37;2.17;;;-3.10;97.30;;;;;;4977297;28;20174;-84
2023/01/19 02:24:17;;;;;;;1.50;1.40;;;-3.20;97.30;;;;;;4976732;28;20430;-86
2023/01/19 02:26:44;;;;;;;3.67;3.07;;;-3.20;97.30;;;;;;4977497;28;20459;-86
2023/01/19 02:29:16;;;;;;;1.30;1.20;;;-3.20;97.30;;;;;;4976861;28;20421;-85
2023/01/19 02:31:44;;;;;;;4.20;2.97;;;-3.20;97.30;;;;;;4976359;28;20576;-85
2023/01/19 02:34:14;;;;;;;1.20;1.10;;;-3.20;97.30;;;;;;4977656;28;20543;-85
2023/01/19 02:36:47;;;;;;;1.20;1.10;;;-3.20;97.30;;;;;;4995528;28;20466;-85
2023/01/19 02:39:18;;;;;;;1.40;1.30;;;-3.20;97.30;;;;;;4995654;28;20419;-84
2023/01/19 02:41:48;;;;;;;1.50;1.40;;;-3.30;97.30;;;;;;4983500;28;20485;-84
2023/01/19 02:47:03;;;;;;;2.50;1.70;;;-3.50;97.30;;;;;;4984374;28;21022;-92
2023/01/19 02:49:29;;;;;;;1.40;1.30;;;-3.60;97.30;;;;;;4977051;28;20440;-92
2023/01/19 02:51:55;;;;;;;1.93;1.83;;;-3.70;97.30;;;;;;4976801;28;20685;-92
2023/01/19 02:54:26;;;;;;;2.23;2.07;;;-3.70;97.30;;;;;;4969091;28;20300;-92
2023/01/19 02:57:13;;;;;;;1.40;1.30;;;-3.70;97.30;;;;;;4957250;28;20551;-92
2023/01/19 03:00:06;;;;;;;1.70;1.60;;;-3.60;97.30;;;;;;4957425;28;20413;-92
2023/01/19 03:02:45;;;;;;;4.43;2.00;;;-3.70;97.30;;;;;;4974755;28;20421;-92
2023/01/19 03:05:23;;;;;;;4.90;2.63;;;-3.70;97.30;;;;;;4957468;28;20546;-92
2023/01/19 03:07:56;;;;;;;3.40;3.20;;;-3.70;97.30;;;;;;4957691;28;20480;-92
2023/01/19 03:10:34;;;;;;;2.23;2.03;;;-3.70;97.30;;;;;;4957656;28;20418;-92
2023/01/19 03:13:28;;;;;;;1.40;1.30;;;-3.80;97.30;;;;;;4957579;28;20572;-92
2023/01/19 03:16:05;;;;;;;6.83;1.83;;;-3.80;97.30;;;;;;4957280;28;20429;-92
2023/01/19 03:18:34;;;;;;;1.70;1.60;;;-3.80;97.30;;;;;;4975717;28;20401;-92
2023/01/19 03:21:04;;;;;;;11.80;2.17;;;-3.90;97.30;;;;;;4958172;28;20424;-92
2023/01/19 03:23:31;;;;;;;1.63;1.53;;;-3.90;97.30;;;;;;4957824;28;20410;-92
2023/01/19 03:25:59;;;;;;;1.20;1.10;;;-3.90;97.30;;;;;;4958022;28;20418;-93
2023/01/19 03:28:28;;;;;;;3.03;2.30;;;-3.90;97.30;;;;;;4957892;28;20944;-92
2023/01/19 03:30:59;;;;;;;1.07;0.97;;;-3.90;97.30;;;;;;4958699;28;20417;-92
2023/01/19 03:33:30;;;;;;;1.10;1.00;;;-3.90;97.30;;;;;;4958407;28;20730;-92
2023/01/19 03:36:07;;;;;;;1.30;1.20;;;-4.00;97.30;;;;;;4943072;29;20433;-92
2023/01/19 03:38:36;;;;;;;2.67;1.40;;;-4.00;97.30;;;;;;4957066;29;20886;-92
2023/01/19 03:41:05;;;;;;;11.80;2.97;;;-4.00;97.30;;;;;;4971743;28;20459;-93
2023/01/19 03:43:32;;;;;;;1.63;1.53;;;-4.10;97.30;;;;;;4971527;28;20516;-93
2023/01/19 03:45:59;;;;;;;5.03;2.03;;;-4.10;97.30;;;;;;4982070;28;20465;-92
2023/01/19 03:48:25;;;;;;;1.30;1.20;;;-4.20;97.30;;;;;;4990597;28;20430;-92
2023/01/19 03:50:51;;;;;;;1.27;1.17;;;-4.10;97.30;;;;;;4990053;28;20418;-93
2023/01/19 03:53:19;;;;;;;1.83;1.73;;;-4.10;97.30;;;;;;4987058;28;20192;-92
2023/01/19 03:55:47;;;;;;;1.60;1.50;;;-4.10;97.30;;;;;;4975511;28;20495;-92
2023/01/19 03:58:12;;;;;;;1.60;1.50;;;-4.10;97.30;;;;;;4977052;28;20560;-92
2023/01/19 04:00:38;;;;;;;3.90;3.70;;;-4.10;97.30;;;;;;4976796;28;20421;-93
2023/01/19 04:03:04;;;;;;;1.93;1.80;;;-4.10;97.30;;;;;;4993240;28;20181;-93
2023/01/19 04:05:31;;;;;;;1.30;1.20;;;-4.10;97.30;;;;;;4976675;28;20447;-93
2023/01/19 04:07:56;;;;;;;1.27;1.17;;;-4.10;97.30;;;;;;4977393;28;20420;-93
2023/01/19 04:10:22;;;;;;;1.80;1.70;;;-4.10;97.30;;;;;;4977943;28;20433;-93
2023/01/19 04:12:48;;;;;;;1.37;1.27;;;-4.20;97.30;;;;;;4978567;28;20651;-92
2023/01/19 04:15:14;;;;;;;3.53;3.13;;;-4.30;97.30;;;;;;4996694;28;20197;-93
2023/01/19 04:17:40;;;;;;;1.27;1.17;;;-4.30;97.30;;;;;;4995102;28;20575;-92
2023/01/19 04:20:07;;;;;;;1.40;1.30;;;-4.30;97.30;;;;;;4975994;28;20433;-93
2023/01/19 04:22:33;;;;;;;3.43;2.10;;;-4.30;97.30;;;;;;4976152;28;20558;-92
2023/01/19 04:24:58;;;;;;;1.50;1.40;;;-4.30;97.30;;;;;;4975605;28;21038;-91
2023/01/19 04:27:24;;;;;;;1.50;1.40;;;-4.20;97.30;;;;;;4975886;28;20176;-92
2023/01/19 04:29:50;;;;;;;1.40;1.30;;;-4.20;97.30;;;;;;4975408;28;20272;-92
2023/01/19 04:32:16;;;;;;;1.87;1.77;;;-4.20;97.30;;;;;;4975195;28;20519;-91
2023/01/19 04:34:42;;;;;;;2.40;2.20;;;-4.20;97.30;;;;;;4975106;28;20511;-91
2023/01/19 04:37:08;;;;;;;1.40;1.30;;;-4.20;97.30;;;;;;4975092;28;20551;-92
2023/01/19 04:39:34;;;;;;;3.40;3.20;;;-4.20;97.30;;;;;;4975272;28;20182;-91
2023/01/19 04:41:59;;;;;;;2.03;1.93;;;-4.10;97.30;;;;;;4970865;28;20182;-90
2023/01/19 04:44:26;;;;;;;2.03;1.57;;;-4.10;97.30;;;;;;4985426;28;20477;-92
2023/01/19 04:46:51;;;;;;;1.30;1.20;;;-4.10;97.30;;;;;;4967028;28;20711;-92
2023/01/19 04:49:17;;;;;;;1.20;1.10;;;-4.10;97.30;;;;;;4955879;28;20513;-92
2023/01/19 04:51:42;;;;;;;1.90;1.87;;;-4.10;97.30;;;;;;4955539;28;20182;-92
2023/01/19 04:54:08;;;;;;;1.63;1.53;;;-4.10;97.30;;;;;;4959925;28;20277;-92
2023/01/19 04:56:33;;;;;;;4.10;2.40;;;-4.10;97.30;;;;;;4990239;28;20555;-91
2023/01/19 04:58:59;;;;;;;1.87;1.77;;;-4.10;97.30;;;;;;4975599;28;20269;-91
2023/01/19 05:01:25;;;;;;;4.13;2.50;;;-4.10;97.30;;;;;;4972911;28;20190;-91
2023/01/19 05:03:50;;;;;;;2.60;1.90;;;-4.10;97.30;;;;;;4972770;28;20292;-92
2023/01/19 05:06:16;;;;;;;2.00;1.73;;;-4.10;97.30;;;;;;4976946;28;20220;-91
2023/01/19 05:08:41;;;;;;;3.77;2.10;;;-4.10;97.30;;;;;;4976632;28;20603;-91
2023/01/19 05:11:07;;;;;;;1.73;1.63;;;-4.10;97.30;;;;;;4978059;28;20193;-91
2023/01/19 05:13:32;;;;;;;2.07;1.93;;;-4.10;97.30;;;;;;4977606;28;20185;-92
2023/01/19 05:15:58;;;;;;;1.20;1.10;;;-4.10;97.30;;;;;;4977385;28;20526;-91
2023/01/19 05:18:24;;;;;;;1.20;1.10;;;-4.10;97.30;;;;;;4977605;28;20208;-91
2023/01/19 05:20:49;;;;;;;1.93;1.43;;;-4.10;97.30;;;;;;4978049;28;20474;-92
2023/01/19 05:23:15;;;;;;;1.40;1.30;;;-4.10;97.30;;;;;;4977833;28;20181;-91
2023/01/19 05:25:41;;;;;;;2.00;1.90;;;-4.10;97.30;;;;;;4977228;28;20296;-91
2023/01/19 05:28:07;;;;;;;1.43;1.33;;;-4.10;97.30;;;;;;4976903;28;20189;-91
2023/01/19 05:30:32;;;;;;;2.20;2.00;;;-4.10;97.30;;;;;;4977021;28;20508;-92
2023/01/19 05:32:58;;;;;;;1.30;1.20;;;-4.20;97.30;;;;;;4976581;28;20191;-91
2023/01/19 05:35:24;;;;;;;3.63;2.60;;;-4.10;97.30;;;;;;4965639;28;20202;-91
2023/01/19 05:37:49;;;;;;;1.93;1.83;;;-4.20;97.30;;;;;;4966099;28;20226;-91
2023/01/19 05:40:15;;;;;;;1.30;1.20;;;-4.10;97.30;;;;;;4974803;28;20186;-91
2023/01/19 05:42:40;;;;;;;6.20;4.27;;;-4.10;97.30;;;;;;4989571;28;20186;-91
2023/01/19 05:45:07;;;;;;;2.63;2.43;;;-4.10;97.30;;;;;;4989520;28;20261;-91
2023/01/19 05:47:32;;;;;;;1.40;1.30;;;-4.10;97.30;;;;;;4966396;28;20188;-91
2023/01/19 05:49:58;;;;;;;2.87;1.50;;;-4.00;97.30;;;;;;4965580;28;20983;-91
2023/01/19 05:52:26;;;;;;;1.70;1.60;;;-4.00;97.30;;;;;;4967706;28;20197;-91
2023/01/19 05:54:53;;;;;;;1.93;1.83;;;-4.00;97.30;;;;;;4961432;28;20224;-91
2023/01/19 05:57:19;;;;;;;3.10;2.90;;;-4.00;97.30;;;;;;4973046;28;20541;-91
2023/01/19 05:59:45;;;;;;;1.60;1.50;;;-3.90;97.30;;;;;;4965715;28;20479;-92
2023/01/19 06:02:10;;;;;;;1.30;1.20;;;-3.90;97.30;;;;;;4968837;28;20193;-91
2023/01/19 06:04:36;;;;;;;2.40;2.10;;;-3.80;97.30;;;;;;4961970;28;20674;-91
2023/01/19 06:07:01;;;;;;;1.90;1.80;;;-3.80;97.30;;;;;;4974893;28;20231;-91
2023/01/19 06:09:28;;;;;;;3.53;2.43;;;-3.80;97.30;;;;;;4965083;28;20272;-91
2023/01/19 06:11:55;;;;;;;1.63;1.37;;;-3.80;97.30;;;;;;4958382;28;20177;-89
2023/01/19 06:14:20;;;;;;;2.20;2.00;;;-3.70;97.30;;;;;;4961146;28;21085;-91
2023/01/19 06:16:46;;;;;;;2.03;1.77;;;-3.70;97.30;;;;;;4962020;28;20780;-91
2023/01/19 06:19:12;;;;;;;11.90;3.07;;;-3.80;97.30;;;;;;4980547;28;20202;-91
2023/01/19 06:21:38;;;;;;;1.90;1.77;;;-3.80;97.30;;;;;;4962094;28;20174;-92
2023/01/19 06:24:03;;;;;;;15.63;2.93;;;-3.80;97.30;;;;;;4975472;28;20447;-91
2023/01/19 06:26:29;;;;;;;2.07;1.93;;;-3.80;97.30;;;;;;4960068;28;20182;-92
2023/01/19 06:28:54;;;;;;;1.80;1.70;;;-3.90;97.30;;;;;;4959297;28;20454;-91
2023/01/19 06:31:20;;;;;;;2.73;2.43;;;-3.90;97.30;;;;;;4959924;28;20182;-91
2023/01/19 06:33:46;;;;;;;4.97;1.83;;;-3.90;97.30;;;;;;4960461;28;20237;-91
2023/01/19 06:36:11;;;;;;;7.70;3.67;;;-3.90;97.30;;;;;;4959929;28;20190;-92
2023/01/19 06:38:37;;;;;;;3.20;3.00;;;-3.90;97.30;;;;;;4976724;28;20221;-91
2023/01/19 06:41:03;;;;;;;3.40;3.20;;;-3.90;97.30;;;;;;4976441;28;20186;-91
2023/01/19 06:43:30;;;;;;;2.23;2.03;;;-3.90;97.30;;;;;;4976478;28;20179;-91
2023/01/19 06:45:59;;;;;;;4.97;2.73;;;-3.90;97.30;;;;;;4977318;28;20552;-92
2023/01/19 06:48:25;;;;;;;1.90;1.80;;;-3.90;97.30;;;;;;4986439;28;20424;-91
2023/01/19 06:50:50;;;;;;;1.77;1.67;;;-3.90;97.30;;;;;;4977909;28;20439;-90
2023/01/19 06:53:16;;;;;;;1.50;1.40;;;-3.80;97.30;;;;;;4978614;28;20222;-91
2023/01/19 06:55:42;;;;;;;1.77;1.67;;;-3.80;97.30;;;;;;4980782;28;20267;-91
2023/01/19 06:58:09;;;;;;;2.50;2.30;;;-3.70;97.30;;;;;;4978956;28;20686;-89
2023/01/19 07:00:34;;;;;;;3.57;3.37;;;-3.60;97.30;;;;;;4977660;28;20423;-89
2023/01/19 07:03:00;;;;;;;4.43;2.90;;;-3.60;97.30;;;;;;4973096;28;20638;-91
2023/01/19 07:05:25;;;;;;;3.10;2.90;;;-3.50;97.30;;;;;;4977193;28;20212;-88
2023/01/19 07:07:54;;;;;;;2.43;2.23;;;-3.50;97.30;;;;;;4977927;28;20185;-88
2023/01/19 07:10:21;;;;;;;1.80;1.70;;;-3.40;97.30;;;;;;4977395;28;20188;-89
2023/01/19 07:12:46;;;;;;;2.30;2.10;;;-3.40;97.30;;;;;;4995407;28;20448;-88
2023/01/19 07:15:14;;;;;;;3.97;2.90;;;-3.30;97.30;;;;;;4977503;28;21056;-88
2023/01/19 07:17:41;;;;;;;1.97;1.87;;;-3.30;97.30;;;;;;4977305;28;20236;-91
2023/01/19 07:20:13;;;;;;;4.73;3.70;;;-3.30;97.30;;;;;;4977138;28;20455;-89
2023/01/19 07:22:39;;;;;;;7.67;2.77;;;-3.20;97.30;;;;;;4951817;28;20441;-90
2023/01/19 07:25:05;;;;;;;3.13;2.93;;;-3.20;97.30;;;;;;4973757;28;20433;-88
2023/01/19 07:27:30;;;;;;;4.10;2.30;;;-3.20;97.30;;;;;;4979069;28;20425;-89
2023/01/19 07:29:56;;;;;;;2.13;1.97;;;-3.20;97.30;;;;;;4991067;28;20451;-89
2023/01/19 07:32:22;;;;;;;1.67;1.57;;;-3.20;97.30;;;;;;4983939;28;20181;-90
2023/01/19 07:34:47;;;;;;;3.03;2.83;;;-3.20;97.30;;;;;;4980571;28;20578;-89
2023/01/19 07:37:13;;;;;;;2.93;2.73;;;-3.10;97.30;;;;;;4972312;28;20213;-90
2023/01/19 07:39:38;;;;;;;3.37;2.60;;;-3.10;97.30;;;;;;4988152;28;20316;-90
2023/01/19 07:42:04;;;;;;;4.73;2.27;;;-3.10;97.30;;;;;;4989103;28;20220;-90
2023/01/19 07:44:29;;;;;;;5.57;5.27;;;-3.10;97.30;;;;;;4996331;28;20689;-90
2023/01/19 07:46:55;;;;;;;1.90;1.77;;;-3.10;97.30;;;;;;4996469;28;20270;-89
2023/01/19 07:49:20;;;;;;;2.50;2.30;;;-3.10;97.30;;;;;;4996190;28;20176;-89
2023/01/19 07:51:46;;;;;;;13.53;4.20;;;-3.10;97.30;;;;;;4996400;28;20177;-90
2023/01/19 07:54:11;;;;;;;1.93;1.83;;;-3.00;97.30;;;;;;4996062;28;20201;-89
2023/01/19 07:56:37;;;;;;;3.93;3.73;;;-3.00;97.30;;;;;;4996580;28;20263;-89
2023/01/19 07:59:02;;;;;;;1.30;1.20;;;-2.90;97.30;;;;;;4996781;28;20407;-89
2023/01/19 08:01:28;;;;;;;3.57;3.37;;;-2.90;97.30;;;;;;5014526;28;20192;-89
2023/01/19 08:03:54;;;;;;;3.83;3.43;;;-2.80;97.30;;;;;;4996272;28;20201;-89
2023/01/19 08:06:22;;;;;;;3.13;2.60;;;-2.80;97.30;;;;;;4996474;28;20173;-89
2023/01/19 08:08:48;;;;;;;11.80;3.87;;;-2.80;97.30;;;;;;4996344;28;20173;-89
2023/01/19 08:11:14;;;;;;;3.80;3.13;;;-2.80;97.30;;;;;;4996389;28;20510;-89
2023/01/19 08:13:39;;;;;;;1.67;1.57;;;-2.80;97.30;;;;;;4995815;28;20558;-89
2023/01/19 08:16:05;;;;;;;2.60;2.40;;;-2.70;97.30;;;;;;4996431;28;20192;-89
2023/01/19 08:18:30;;;;;;;1.30;1.20;;;-2.70;97.30;;;;;;4996064;28;20212;-90
2023/01/19 08:20:58;;;;;;;2.50;2.30;;;-2.70;97.30;;;;;;4996111;28;20184;-89
2023/01/19 08:23:24;;;;;;;2.83;2.10;;;-2.60;97.30;;;;;;4996143;28;20177;-89
2023/01/19 08:25:49;;;;;;;2.53;2.17;;;-2.60;97.30;;;;;;4995988;28;20755;-89
2023/01/19 08:28:16;;;;;;;4.30;2.80;;;-2.60;97.30;;;;;;4996155;28;20192;-90
2023/01/19 08:30:43;;;;;;;1.90;1.80;;;-2.50;97.30;;;;;;4995842;28;20445;-89
2023/01/19 08:33:10;;;;;;;4.20;4.00;;;-2.50;97.30;;;;;;4995947;28;20507;-89
2023/01/19 08:35:38;;;;;;;1.77;1.67;;;-2.40;97.30;;;;;;4983480;28;20606;-90
2023/01/19 08:38:05;;;;;;;2.70;2.50;;;-2.30;97.30;;;;;;4976673;28;20798;-89
2023/01/19 08:40:33;;;;;;;5.50;4.17;;;-2.30;97.30;;;;;;4975248;28;20516;-89
2023/01/19 08:43:13;;;;;;;10.30;3.53;;;-2.20;97.30;;;;;;4976234;28;20413;-90
2023/01/19 08:45:49;;;;;;;1.73;1.63;;;-2.10;97.30;;;;;;5013728;23;20558;-86
2023/01/19 08:48:17;;;;;;;1.90;1.77;;;-2.10;97.30;;;;;;4998510;28;20451;-84
2023/01/19 08:50:45;;;;;;;4.30;3.77;;;-2.00;97.30;;;;;;4996613;28;20488;-85
2023/01/19 08:53:11;;;;;;;1.43;1.33;;;-2.00;97.30;;;;;;4997993;28;20460;-84
2023/01/19 08:55:36;;;;;;;5.43;2.57;;;-1.90;97.30;;;;;;4981776;28;20456;-87
2023/01/19 08:58:03;;;;;;;3.20;3.00;;;-1.80;97.30;;;;;;4979605;28;20585;-86
2023/01/19 09:00:32;;;;;;;1.63;1.53;;;-1.70;97.30;;;;;;4978304;28;20182;-85
2023/01/19 09:02:58;;;;;;;6.63;3.63;;;-1.60;97.30;;;;;;4977728;28;20426;-85
2023/01/19 09:05:23;;;;;;;1.60;1.50;;;-1.50;97.30;;;;;;4977190;28;20433;-85
2023/01/19 09:07:50;;;;;;;1.93;1.83;;;-1.50;97.30;;;;;;4977669;28;20179;-86
2023/01/19 09:10:16;;;;;;;4.03;3.67;;;-1.40;97.30;;;;;;4979455;28;20694;-85
2023/01/19 09:12:43;;;;;;;4.50;2.20;;;-1.40;97.30;;;;;;4977403;28;20800;-85
2023/01/19 09:15:09;;;;;;;4.43;3.47;;;-1.30;97.30;;;;;;4977387;28;20449;-85
2023/01/19 09:17:35;;;;;;;3.03;2.50;;;-1.30;97.30;;;;;;4977273;28;20476;-85
2023/01/19 09:20:01;;;;;;;3.03;2.17;;;-1.20;97.30;;;;;;4977563;28;20414;-85
2023/01/19 09:22:26;;;;;;;5.37;3.50;;;-1.20;97.30;;;;;;4977639;28;20179;-84
2023/01/19 09:24:51;;;;;;;5.07;2.67;;;-1.10;97.30;;;;;;4976580;28;20297;-85
2023/01/19 09:27:17;;;;;;;1.73;1.63;;;-1.10;97.30;;;;;;4976926;28;20178;-85
2023/01/19 09:29:51;;;;;;;3.03;2.27;;;-1.00;97.30;;;;;;4976384;28;20653;-86
2023/01/19 09:32:17;;;;;;;6.70;2.33;;;-1.00;97.30;;;;;;4976687;28;20213;-87
2023/01/19 09:34:42;;;;;;;2.27;2.10;;;-0.90;97.30;;;;;;4982396;28;20441;-86
2023/01/19 09:37:08;;;;;;;4.00;2.33;;;-0.90;97.30;;;;;;4996622;28;20605;-84
2023/01/19 09:39:33;;;;;;;3.40;3.20;;;-0.80;97.30;;;;;;4996469;28;20181;-85
2023/01/19 09:42:08;;;;;;;4.97;2.10;;;-0.80;97.30;;;;;;4995352;28;20170;-87
2023/01/19 09:44:34;;;;;;;8.40;3.03;;;-0.70;97.30;;;;;;4966987;28;1025744;-85
2023/01/19 09:47:15;;;;;;;6.57;2.73;;;-0.70;97.30;;;;;;5016722;28;20267;-84
2023/01/19 09:49:48;;;;;;;2.80;2.60;;;-0.60;97.30;;;;;;5015860;28;20446;-85
2023/01/19 09:52:17;;;;;;;4.37;2.50;;;-0.60;97.30;;;;;;5015831;28;20424;-84
2023/01/19 09:54:52;;;;;;;2.63;2.43;;;-0.60;97.30;;;;;;5016471;28;20483;-85
2023/01/19 09:57:20;;;;;;;4.40;2.80;;;-0.50;97.30;;;;;;5015796;28;20459;-85
2023/01/19 09:59:50;;;;;;;9.17;2.80;;;-0.40;97.30;;;;;;5016416;28;20415;-84
2023/01/19 10:02:27;;;;;;;1.87;1.77;;;-0.40;97.30;;;;;;5015751;28;20475;-85
2023/01/19 10:04:57;;;;;;;1.80;1.70;;;-0.40;97.30;;;;;;5015578;28;20435;-87
2023/01/19 10:07:42;;;;;;;2.63;2.03;;;-0.30;97.30;;;;;;5007680;28;20490;-85
2023/01/19 10:10:26;;;;;;;2.60;2.40;;;-0.20;97.30;;;;;;4995168;28;20974;-85
2023/01/19 10:13:20;;;;;;;2.53;2.33;;;-0.20;97.30;;;;;;4995595;28;20437;-85
2023/01/19 10:16:08;;;;;;;1.67;1.57;;;-0.20;97.30;;;;;;4995406;28;20485;-85
2023/01/19 10:18:46;;;;;;;2.50;2.30;;;-0.10;97.30;;;;;;4995882;28;20471;-87
2023/01/19 10:21:23;;;;;;;2.07;1.93;;;-0.20;97.30;;;;;;4995450;28;20508;-86
2023/01/19 10:24:02;;;;;;;6.33;2.90;;;-0.20;97.30;;;;;;4996548;28;20460;-84
2023/01/19 10:26:35;;;;;;;2.07;1.93;;;-0.20;97.30;;;;;;4996211;28;20424;-84
2023/01/19 10:29:22;;;;;;;22.90;2.77;;;-0.10;97.30;;;;;;4997282;28;20467;-87
2023/01/19 10:31:51;;;;;;;1.57;1.47;;;0.10;97.30;;;;;;4996513;28;20409;-84
2023/01/19 10:34:21;;;;;;;2.27;2.07;;;0.10;97.30;;;;;;4999066;28;20454;-85
2023/01/19 10:36:48;;;;;;;4.37;4.10;;;0.20;97.30;;;;;;5018071;28;20457;-85
2023/01/19 10:39:17;;;;;;;9.97;4.30;;;0.30;97.30;;;;;;5016884;28;20417;-85
2023/01/19 10:41:49;;;;;;;3.03;2.83;;;0.40;97.30;;;;;;5016525;28;20412;-87
2023/01/19 10:44:33;;;;;;;2.63;2.43;;;0.50;97.30;;;;;;5015442;28;20834;-85
2023/01/19 10:47:00;;;;;;;4.63;3.00;;;0.60;97.30;;;;;;5016432;28;20497;-85
2023/01/19 10:49:38;;;;;;;3.33;2.83;;;0.70;97.30;;;;;;5015597;28;20446;-86
2023/01/19 10:52:06;;;;;;;1.93;1.73;;;0.80;97.30;;;;;;5014786;28;20428;-85
2023/01/19 10:54:35;;;;;;;1.83;1.60;;;0.80;97.30;;;;;;5014603;28;20446;-87
2023/01/19 10:57:04;;;;;;;2.57;2.37;;;0.90;97.30;;;;;;5014264;28;20473;-86
2023/01/19 10:59:47;;;;;;;4.20;2.63;;;0.90;97.30;;;;;;5014000;28;20435;-86
2023/01/19 11:02:19;;;;;;;2.23;2.03;;;1.00;97.30;;;;;;5014277;28;20455;-88
2023/01/19 11:04:48;;;;;;;3.63;3.30;;;1.10;97.30;;;;;;5016761;28;20440;-87
2023/01/19 11:07:15;;;;;;;3.17;2.17;;;1.10;97.30;;;;;;5017562;28;20478;-85
2023/01/19 11:09:40;;;;;;;1.63;1.47;;;1.10;97.30;;;;;;5017355;28;20512;-86
2023/01/19 11:12:19;;;;;;;3.07;2.87;;;1.20;97.30;;;;;;5018407;28;20432;-86
2023/01/19 11:14:45;;;;;;;3.83;2.73;;;1.20;97.30;;;;;;5017922;28;20220;-86
2023/01/19 11:17:24;;;;;;;3.20;2.43;;;1.30;97.30;;;;;;5017454;28;20834;-85
2023/01/19 11:20:00;;;;;;;2.87;2.67;;;1.30;97.30;;;;;;5018151;28;20424;-85
2023/01/19 11:22:32;;;;;;;3.27;2.63;;;1.30;97.30;;;;;;5017109;28;20415;-86
2023/01/19 11:25:03;;;;;;;5.23;2.23;;;1.40;97.30;;;;;;5016204;28;20444;-87
2023/01/19 11:27:33;;;;;;;2.63;2.13;;;1.50;97.30;;;;;;5016306;28;20518;-86
2023/01/19 11:30:09;;;;;;;4.00;2.17;;;1.60;97.30;;;;;;5016444;28;20424;-86
2023/01/19 11:32:35;;;;;;;2.20;2.00;;;1.70;97.30;;;;;;5016205;28;20438;-88
2023/01/19 11:35:21;;;;;;;15.97;3.23;;;1.60;97.30;;;;;;5008880;28;21002;-86
2023/01/19 11:37:47;;;;;;;4.07;3.80;;;1.60;97.30;;;;;;4997017;28;20476;-85
2023/01/19 11:40:15;;;;;;;2.10;1.47;;;1.70;97.30;;;;;;4996289;28;20420;-86
2023/01/19 11:42:41;;;;;;;3.93;1.90;;;1.70;97.30;;;;;;4996958;28;20612;-85
2023/01/19 11:45:15;;;;;;;1.67;1.57;;;1.80;97.30;;;;;;4997948;28;20896;-86
2023/01/19 11:47:51;;;;;;;3.27;3.07;;;1.80;97.30;;;;;;4998037;28;20467;-86
2023/01/19 11:50:23;;;;;;;3.20;2.93;;;1.90;97.30;;;;;;4998405;28;20708;-86
2023/01/19 11:53:04;;;;;;;3.10;2.20;;;2.00;97.30;;;;;;4997239;28;20447;-85
2023/01/19 11:55:51;;;;;;;3.93;3.50;;;2.00;97.30;;;;;;4998361;28;20445;-86
2023/01/19 11:58:18;;;;;;;8.67;3.30;;;2.20;97.30;;;;;;4998149;28;20518;-88
2023/01/19 12:00:55;;;;;;;1.60;1.50;;;2.20;97.30;;;;;;4999381;28;20429;-85
2023/01/19 12:03:31;;;;;;;4.40;2.40;;;2.30;97.30;;;;;;4998946;28;20485;-86
2023/01/19 12:06:06;;;;;;;10.30;4.90;;;2.40;97.30;;;;;;4999263;28;20452;-88
2023/01/19 12:08:41;;;;;;;1.70;1.60;;;2.50;97.30;;;;;;5000748;28;20455;-84
2023/01/19 12:11:09;;;;;;;6.00;3.43;;;2.60;97.30;;;;;;5001640;28;20415;-85
2023/01/19 12:13:36;;;;;;;2.70;2.50;;;2.70;97.30;;;;;;4999456;28;20424;-84
2023/01/19 12:16:09;;;;;;;2.47;2.27;;;2.60;97.30;;;;;;4998249;28;20452;-84
2023/01/19 12:18:40;;;;;;;2.80;2.60;;;2.70;97.30;;;;;;5002359;28;20537;-85
2023/01/19 12:21:05;;;;;;;3.13;2.93;;;2.80;97.30;;;;;;5001036;28;20424;-86
2023/01/19 12:24:02;;;;;;;2.23;2.03;;;2.80;97.30;;;;;;5002902;28;20871;-86
2023/01/19 12:26:43;;;;;;;3.07;2.37;;;2.80;97.30;;;;;;5011348;28;20174;-87
2023/01/19 12:29:16;;;;;;;6.17;3.97;;;2.90;97.30;;;;;;5010679;28;20503;-87
2023/01/19 12:31:42;;;;;;;2.90;1.63;;;3.00;97.30;;;;;;5000082;28;20421;-85
2023/01/19 12:34:30;;;;;;;10.93;2.50;;;3.10;97.30;;;;;;4998360;28;20443;-85
2023/01/19 12:37:03;;;;;;;3.33;2.60;;;3.20;97.30;;;;;;4997880;28;20461;-85
2023/01/19 12:39:31;;;;;;;2.53;2.33;;;3.30;97.30;;;;;;4999587;28;20581;-86
2023/01/19 12:42:06;;;;;;;1.70;1.60;;;3.40;96.90;;;;;;5000220;28;20409;-85
2023/01/19 12:44:33;;;;;;;2.47;1.90;;;3.40;96.60;;;;;;4998656;28;20480;-85
2023/01/19 12:47:16;;;;;;;1.43;1.33;;;3.50;96.50;;;;;;4997064;28;20421;-85
2023/01/19 12:49:49;;;;;;;2.50;2.27;;;3.40;96.30;;;;;;4997533;28;20935;-85
2023/01/19 12:52:18;;;;;;;5.40;2.90;;;3.30;96.20;;;;;;4997390;28;20424;-85
2023/01/19 12:54:49;;;;;;;2.30;2.10;;;3.20;96.40;;;;;;4997289;28;20429;-85
2023/01/19 12:57:30;;;;;;;2.10;1.63;;;3.40;96.60;;;;;;4997031;28;20919;-85
2023/01/19 12:59:58;;;;;;;2.50;2.30;;;3.40;96.30;;;;;;4996559;28;20428;-85
2023/01/19 13:02:23;;;;;;;2.40;2.20;;;3.40;96.20;;;;;;4996435;28;20507;-85
2023/01/19 13:05:13;;;;;;;5.10;2.83;;;3.60;96.40;;;;;;4995795;28;20476;-86
2023/01/19 13:08:00;;;;;;;4.10;3.63;;;3.60;95.70;;;;;;4995861;28;20182;-87
2023/01/19 13:10:51;;;;;;;2.90;2.70;;;3.90;96.30;;;;;;4996233;28;20504;-86